»·PEaware :: TPX532 KLAS-KNYL

TPX532 :: KLAS-KNYL

FLIGHT INFORMATION

Flight Status: Arrived
Operator: ATP Experience
More flights by this operator :: More flights under this callsign
Pilot: Dave P. (45)
Aircraft: BOEING 737-600
(B736)
More flights by this aircraft type
Origin: KLAS McCarran Intl
United States
Destination: KNYL Yuma MCAS/Yuma Intl
United States
More flights between these airports :: More routes between these airports
Route: +BOACH8 BOACH GFS BLH
File this flight plan on PilotEdge
Remarks: PBN / A1B1C1D1S1S2 DOF / 180701 REG / N736PM OPR / TPX PER / C RMK / TCAS SIMBRIEF
Altitude:
(Current/Filed)
27,000ft
Speed:
(Current/Filed)
455kts
Departed: 01-Jul-18 03:09 PM
Arrived: 01-Jul-18 03:50 PM
Distance/Time
Traveled:
207nm/0:41
Distance/Time
To Go:
Arrived

Flight Plot

Page will automatically refresh every two minutes.

Flight plan parsing failed; only flown route is shown


Map Options




Map Legend


Flown Route
Filed Route
Departure Airport
Arrival Airport
Navaid (VOR, NDB)
Fix

Horizontal Profiles

Position Reports

Time Latitude Longitude Heading Altitude Ground
Speed
01-Jul-18 14:54 36.081131 -115.138027 322 2188ft 0kts
01-Jul-18 14:55 36.081131 -115.138027 322 2188ft 0kts
01-Jul-18 14:56 36.081131 -115.138027 322 2188ft 0kts
01-Jul-18 14:57 36.081131 -115.138027 322 2188ft 0kts
01-Jul-18 14:58 36.081131 -115.138027 322 2188ft 0kts
01-Jul-18 14:59 36.081131 -115.138027 322 2188ft 0kts
01-Jul-18 15:00 36.081131 -115.138027 322 2188ft 0kts
01-Jul-18 15:01 36.080806 -115.137721 322 2188ft 2kts
01-Jul-18 15:02 36.080570 -115.137498 322 2188ft 0kts
01-Jul-18 15:03 36.080570 -115.137498 322 2188ft 0kts
01-Jul-18 15:04 36.078922 -115.135831 132 2188ft 6kts
01-Jul-18 15:05 36.078241 -115.134867 97 2188ft 8kts
01-Jul-18 15:06 36.078244 -115.128772 89 2188ft 19kts
01-Jul-18 15:07 36.077889 -115.122508 118 2188ft 13kts
01-Jul-18 15:08 36.076374 -115.121551 251 2188ft 7kts
01-Jul-18 15:09 36.076333 -115.145875 269 2243ft 153kts
01-Jul-18 15:10 36.076305 -115.201074 269 4141ft 173kts
01-Jul-18 15:11 36.058494 -115.264640 208 5043ft 248kts
01-Jul-18 15:12 35.986333 -115.294556 200 6922ft 286kts
01-Jul-18 15:13 35.906927 -115.309538 184 9483ft 295kts
01-Jul-18 15:14 35.820042 -115.311857 173 11724ft 347kts
01-Jul-18 15:15 35.718924 -115.299369 174 14508ft 374kts
01-Jul-18 15:16 35.613275 -115.282175 169 17441ft 392kts
01-Jul-18 15:17 35.503494 -115.257154 169 19924ft 408kts
01-Jul-18 15:18 35.389457 -115.232121 169 22404ft 424kts
01-Jul-18 15:19 35.271443 -115.206602 169 24581ft 439kts
01-Jul-18 15:20 35.149265 -115.180341 169 26592ft 452kts
01-Jul-18 15:22 35.025135 -115.147928 166 26902ft 455kts
01-Jul-18 15:23 34.901574 -115.113667 166 26909ft 455kts
01-Jul-18 15:24 34.778060 -115.079782 166 26909ft 455kts
01-Jul-18 15:25 34.654142 -115.045866 166 26914ft 455kts
01-Jul-18 15:26 34.530629 -115.012245 166 26918ft 455kts
01-Jul-18 15:27 34.407103 -114.978744 166 26921ft 455kts
01-Jul-18 15:28 34.283671 -114.945376 166 26921ft 455kts
01-Jul-18 15:29 34.160221 -114.912104 166 26906ft 454kts
01-Jul-18 15:30 34.036785 -114.878934 166 26897ft 454kts
01-Jul-18 15:31 33.913373 -114.845866 166 26891ft 455kts
01-Jul-18 15:32 33.789863 -114.812808 166 26884ft 455kts
01-Jul-18 15:33 33.667684 -114.780299 166 25512ft 441kts
01-Jul-18 15:34 33.550533 -114.752094 171 24044ft 406kts
01-Jul-18 15:35 33.446745 -114.735840 171 23868ft 344kts
01-Jul-18 15:36 33.359577 -114.721724 171 23536ft 298kts
01-Jul-18 15:37 33.271304 -114.707227 171 20249ft 350kts
01-Jul-18 15:38 33.171703 -114.690740 171 17880ft 352kts
01-Jul-18 15:39 33.077350 -114.675144 171 16159ft 336kts
01-Jul-18 15:40 32.986196 -114.660112 171 14310ft 325kts
01-Jul-18 15:41 32.899686 -114.645831 171 12209ft 294kts
01-Jul-18 15:42 32.821238 -114.632943 172 10049ft 277kts
01-Jul-18 15:43 32.748703 -114.614179 139 7970ft 266kts
01-Jul-18 15:44 32.735986 -114.531298 91 6035ft 253kts
01-Jul-18 15:45 32.735266 -114.458131 90 5447ft 195kts
01-Jul-18 15:46 32.704098 -114.426227 174 4293ft 173kts
01-Jul-18 15:47 32.669209 -114.450204 257 2916ft 169kts
01-Jul-18 15:48 32.667226 -114.500775 266 1829ft 142kts
01-Jul-18 15:49 32.666729 -114.546139 266 900ft 129kts
01-Jul-18 15:50 32.666144 -114.588337 266 226ft 123kts
01-Jul-18 15:51 32.666908 -114.600109 358 223ft 0kts
01-Jul-18 15:52 32.667917 -114.599451 358 223ft 1kts
01-Jul-18 15:53 32.667962 -114.599453 358 223ft 0kts
01-Jul-18 15:54 32.667962 -114.599453 358 223ft 0kts
01-Jul-18 15:54 32.667962 -114.599453 358 223ft 0kts

Navigation Log

Ident Type
Flight plan parsing failed, navigation log unavailable